Time;durP1;ratioP1;P1;durP2;ratioP2;P2;SDS_P1;SDS_P2;PMS_P1;PMS_P2;Temp;Humidity;BMP_temperature;BMP_pressure;BME280_temperature;BME280_humidity;BME280_pressure;Samples;Min_cycle;Max_cycle;Signal;HPM_P1;HPM_P2
2021/07/13 00:00:42;;;;;;;15.88;14.18;;;21.90;99.90;;;;;;5052711;28;20116;-88
2021/07/13 00:03:09;;;;;;;15.93;14.27;;;21.90;99.90;;;;;;5053033;28;20021;-89
2021/07/13 00:05:37;;;;;;;15.35;13.88;;;21.90;99.90;;;;;;5052402;28;20120;-88
2021/07/13 00:08:04;;;;;;;15.77;13.65;;;21.90;99.90;;;;;;5043734;28;20057;-88
2021/07/13 00:10:32;;;;;;;15.40;13.48;;;22.00;99.90;;;;;;5033664;28;20017;-88
2021/07/13 00:12:58;;;;;;;15.27;12.48;;;21.90;99.90;;;;;;5035003;28;20029;-88
2021/07/13 00:15:33;;;;;;;14.90;13.40;;;22.00;99.90;;;;;;5036479;28;20529;-88
2021/07/13 00:18:00;;;;;;;13.57;12.20;;;22.00;99.90;;;;;;5037555;28;20083;-88
2021/07/13 00:20:26;;;;;;;13.48;11.95;;;21.90;99.90;;;;;;5036328;28;20118;-88
2021/07/13 00:22:52;;;;;;;14.25;12.25;;;21.90;99.90;;;;;;5036262;28;20067;-88
2021/07/13 00:25:19;;;;;;;13.25;11.95;;;21.90;99.90;;;;;;5036052;28;20076;-88
2021/07/13 00:27:45;;;;;;;12.68;11.48;;;21.90;99.90;;;;;;5043504;28;20059;-88
2021/07/13 00:30:13;;;;;;;13.15;11.75;;;21.90;99.90;;;;;;5056078;28;20029;-87
2021/07/13 00:32:39;;;;;;;12.85;11.55;;;21.80;99.90;;;;;;5056136;28;20021;-88
2021/07/13 00:35:06;;;;;;;12.30;11.02;;;21.80;99.90;;;;;;5055907;28;20061;-88
2021/07/13 00:37:32;;;;;;;13.90;11.07;;;21.80;99.90;;;;;;5055911;28;20506;-87
2021/07/13 00:39:57;;;;;;;12.32;11.05;;;21.80;99.90;;;;;;5036791;28;20055;-88
2021/07/13 00:42:23;;;;;;;12.40;11.13;;;21.80;99.90;;;;;;5037214;28;20368;-89
2021/07/13 00:44:49;;;;;;;13.30;11.90;;;21.70;99.90;;;;;;5035926;28;20025;-88
2021/07/13 00:47:19;;;;;;;13.80;10.80;;;21.70;99.90;;;;;;5035921;28;20025;-87
2021/07/13 00:49:46;;;;;;;12.13;10.35;;;21.70;99.90;;;;;;5035758;28;20022;-87
2021/07/13 00:52:13;;;;;;;11.80;10.60;;;21.70;99.90;;;;;;5035652;28;20022;-87
2021/07/13 00:54:40;;;;;;;11.00;9.82;;;21.60;99.90;;;;;;5035564;28;20021;-87
2021/07/13 00:57:08;;;;;;;11.80;10.60;;;21.70;99.90;;;;;;5035524;28;20071;-88
2021/07/13 00:59:38;;;;;;;11.90;10.52;;;21.70;99.90;;;;;;5035813;28;20025;-87
2021/07/13 01:02:06;;;;;;;12.50;10.65;;;21.70;99.90;;;;;;5035395;28;20388;-88
2021/07/13 01:04:34;;;;;;;11.40;10.20;;;21.70;99.90;;;;;;5036545;28;20116;-88
2021/07/13 01:14:26;;;;;;;11.48;10.27;;;21.90;99.90;;;;;;5037324;28;20075;-87
2021/07/13 01:17:16;;;;;;;10.45;9.35;;;21.90;99.90;;;;;;5035118;28;20033;-88
2021/07/13 01:20:00;;;;;;;;;;;22.00;99.90;;;;;;5029615;28;20033;-87
2021/07/13 01:22:31;;;;;;;10.40;9.40;;;21.90;99.90;;;;;;5036155;28;19905;-86
2021/07/13 01:25:54;;;;;;;10.38;9.30;;;21.90;99.90;;;;;;5034533;28;20103;-87
2021/07/13 01:28:23;;;;;;;15.15;9.52;;;22.00;99.90;;;;;;5050688;28;20369;-86
2021/07/13 01:30:54;;;;;;;10.80;9.80;;;22.00;99.90;;;;;;5034215;28;20036;-86
2021/07/13 01:33:22;;;;;;;10.55;9.45;;;22.10;99.90;;;;;;5024726;28;20040;-87
2021/07/13 01:35:56;;;;;;;11.52;9.65;;;22.10;99.90;;;;;;5034497;28;20036;-86
2021/07/13 01:38:26;;;;;;;10.57;8.85;;;22.10;99.90;;;;;;5034429;28;20049;-86
2021/07/13 01:40:59;;;;;;;9.50;8.60;;;22.20;99.90;;;;;;5034570;28;20021;-86
2021/07/13 01:43:24;;;;;;;10.65;9.65;;;22.20;99.90;;;;;;5034498;28;20034;-87
2021/07/13 01:45:51;;;;;;;10.70;9.68;;;22.20;99.90;;;;;;5035191;28;20063;-86
2021/07/13 01:48:17;;;;;;;11.90;10.70;;;22.20;99.90;;;;;;5034323;28;20482;-86
2021/07/13 01:50:49;;;;;;;11.57;10.30;;;22.20;99.90;;;;;;5042285;28;20025;-86
2021/07/13 01:53:16;;;;;;;12.48;11.20;;;22.20;99.90;;;;;;5055247;28;20020;-87
2021/07/13 01:55:43;;;;;;;12.85;11.55;;;22.20;99.90;;;;;;5055470;28;20032;-86
2021/07/13 01:58:10;;;;;;;12.60;10.50;;;22.20;99.90;;;;;;5055375;28;20024;-86
2021/07/13 02:00:40;;;;;;;10.82;9.82;;;22.20;99.90;;;;;;5053873;28;20031;-86
2021/07/13 02:03:06;;;;;;;11.30;10.10;;;22.20;99.90;;;;;;5053858;28;20036;-85
2021/07/13 02:05:34;;;;;;;11.48;10.27;;;22.20;99.90;;;;;;5053718;28;20474;-86
2021/07/13 02:08:03;;;;;;;10.95;9.77;;;22.20;99.90;;;;;;5053769;28;20029;-86
2021/07/13 02:10:30;;;;;;;10.23;9.23;;;22.20;99.90;;;;;;5053654;28;20120;-86
2021/07/13 02:12:55;;;;;;;10.50;9.50;;;22.10;99.90;;;;;;5054958;28;20025;-86
2021/07/13 02:15:21;;;;;;;11.10;9.85;;;22.10;99.90;;;;;;5038015;28;20021;-86
2021/07/13 02:17:51;;;;;;;10.88;9.57;;;22.10;99.90;;;;;;5033736;28;20037;-86
2021/07/13 02:20:19;;;;;;;;;;;22.10;99.90;;;;;;5034061;28;20120;-86
2021/07/13 02:22:45;;;;;;;10.65;9.65;;;22.10;99.90;;;;;;5034518;28;20262;-86
2021/07/13 02:25:12;;;;;;;11.35;10.25;;;22.10;99.90;;;;;;5034355;28;20081;-87
2021/07/13 02:27:45;;;;;;;11.43;10.32;;;22.10;99.90;;;;;;5033806;28;20490;-86
2021/07/13 02:30:12;;;;;;;11.93;10.73;;;22.10;99.90;;;;;;5038138;28;20488;-86
2021/07/13 02:33:10;;;;;;;12.27;10.68;;;22.10;99.90;;;;;;5053468;28;20021;-86
2021/07/13 02:35:41;;;;;;;12.32;11.02;;;22.10;99.90;;;;;;5052840;28;20025;-86
2021/07/13 02:38:13;;;;;;;13.52;11.50;;;22.10;99.90;;;;;;5053259;28;20024;-86
2021/07/13 02:40:39;;;;;;;13.57;11.48;;;22.10;99.90;;;;;;5053266;28;20155;-86
2021/07/13 02:43:06;;;;;;;12.43;10.75;;;22.20;99.90;;;;;;5054289;28;20029;-86
2021/07/13 02:45:33;;;;;;;12.43;11.13;;;22.20;99.90;;;;;;5052906;28;20032;-86
2021/07/13 02:48:00;;;;;;;12.10;10.63;;;22.30;99.90;;;;;;5053306;28;20108;-86
2021/07/13 02:50:27;;;;;;;14.65;10.80;;;22.30;99.90;;;;;;5054132;28;20017;-86
2021/07/13 02:52:53;;;;;;;13.82;10.80;;;22.40;99.90;;;;;;5054154;28;20027;-86
2021/07/13 02:55:21;;;;;;;12.60;11.30;;;22.50;99.90;;;;;;5041898;28;20592;-86
2021/07/13 02:57:49;;;;;;;11.40;10.30;;;22.50;99.90;;;;;;5034305;28;20025;-86
2021/07/13 03:00:18;;;;;;;11.52;10.43;;;22.60;99.90;;;;;;5035697;28;20060;-86
2021/07/13 18:06:23;;;;;;;25.75;16.92;;;27.20;93.70;;;;;;5091004;28;20412;-81
2021/07/13 18:08:48;;;;;;;31.80;18.38;;;26.80;93.70;;;;;;5090564;28;20020;-81
2021/07/13 18:11:14;;;;;;;32.92;18.95;;;26.80;94.40;;;;;;5071610;28;20035;-81
2021/07/13 18:13:41;;;;;;;25.60;16.60;;;26.70;94.90;;;;;;5073932;28;20029;-81
2021/07/13 18:16:07;;;;;;;28.15;14.15;;;26.70;95.30;;;;;;5070493;28;20037;-81
2021/07/13 18:18:33;;;;;;;15.65;11.35;;;26.70;95.50;;;;;;5070520;28;20102;-81
2021/07/13 18:20:59;;;;;;;15.57;10.85;;;26.60;95.70;;;;;;5070851;28;20021;-81
2021/07/13 18:23:24;;;;;;;14.75;10.80;;;26.60;96.00;;;;;;5083261;28;20120;-81
2021/07/13 18:25:50;;;;;;;16.85;10.40;;;26.60;96.30;;;;;;5070246;28;20028;-81
2021/07/13 18:28:16;;;;;;;14.90;10.85;;;26.60;96.40;;;;;;5070481;28;20028;-81
2021/07/13 18:30:41;;;;;;;15.25;10.73;;;26.60;96.40;;;;;;5070304;28;20028;-81
2021/07/13 18:33:07;;;;;;;15.73;10.77;;;26.60;96.50;;;;;;5070312;28;20055;-81
2021/07/13 18:35:33;;;;;;;14.63;10.60;;;26.60;96.60;;;;;;5070195;28;20115;-81
2021/07/13 18:37:58;;;;;;;13.75;10.00;;;26.60;96.70;;;;;;5070190;28;20114;-81
2021/07/13 18:40:24;;;;;;;13.07;10.07;;;26.60;96.70;;;;;;5068850;28;20040;-82
2021/07/13 18:42:50;;;;;;;17.00;11.55;;;26.60;96.70;;;;;;5068805;28;20083;-81
2021/07/13 18:45:16;;;;;;;16.98;12.57;;;26.50;96.80;;;;;;5077403;28;20025;-82
2021/07/13 18:47:43;;;;;;;14.70;11.00;;;26.50;96.90;;;;;;5090085;28;20356;-82
2021/07/13 18:50:09;;;;;;;14.45;11.18;;;26.50;96.90;;;;;;5090104;28;20021;-81
2021/07/13 18:52:35;;;;;;;15.23;10.48;;;26.50;97.00;;;;;;5088756;28;20024;-81
2021/07/13 18:55:03;;;;;;;16.75;12.02;;;26.50;97.00;;;;;;5084608;28;20053;-82
2021/07/13 18:57:29;;;;;;;14.27;11.07;;;26.40;97.10;;;;;;5068774;28;20025;-82
2021/07/13 18:59:55;;;;;;;13.43;11.27;;;26.40;97.20;;;;;;5068642;28;20102;-82
2021/07/13 19:02:21;;;;;;;16.17;11.10;;;26.40;97.30;;;;;;5069899;28;20055;-82
2021/07/13 19:04:46;;;;;;;15.43;10.82;;;26.30;97.40;;;;;;5085076;28;20049;-82
2021/07/13 19:07:12;;;;;;;14.73;11.55;;;26.30;97.40;;;;;;5070055;28;20371;-82
2021/07/13 19:09:38;;;;;;;15.27;10.60;;;26.30;97.50;;;;;;5069957;28;20064;-82
2021/07/13 19:12:04;;;;;;;14.93;11.02;;;26.30;97.60;;;;;;5069615;28;20151;-82
2021/07/13 19:14:30;;;;;;;13.18;10.02;;;26.20;97.60;;;;;;5085234;28;20028;-82
2021/07/13 19:16:56;;;;;;;14.48;10.75;;;26.20;97.70;;;;;;5059750;28;20025;-82
2021/07/13 19:19:21;;;;;;;15.50;11.00;;;26.10;97.80;;;;;;5056298;28;20025;-82
2021/07/13 19:21:47;;;;;;;18.08;11.55;;;26.10;97.90;;;;;;5055984;28;20061;-82
2021/07/13 19:24:13;;;;;;;13.82;11.00;;;26.10;98.00;;;;;;5056306;28;20024;-82
2021/07/13 19:26:42;;;;;;;16.90;12.07;;;26.10;98.10;;;;;;5055870;28;20074;-82
2021/07/13 19:29:12;;;;;;;16.23;13.02;;;26.10;98.10;;;;;;5065189;28;20146;-83
2021/07/13 19:31:38;;;;;;;19.70;13.02;;;26.00;98.10;;;;;;5076215;28;20095;-83
2021/07/13 19:39:34;;;;;;;22.35;14.73;;;26.00;98.20;;;;;;5054689;28;20028;-83
2021/07/13 19:41:59;;;;;;;19.70;15.18;;;26.00;98.10;;;;;;5068336;28;20426;-83
2021/07/13 19:44:25;;;;;;;22.38;16.67;;;26.00;98.10;;;;;;5075817;28;20029;-83
2021/07/13 19:46:51;;;;;;;25.48;17.20;;;25.90;98.10;;;;;;5074596;28;20048;-83
2021/07/13 19:49:16;;;;;;;22.55;17.73;;;25.90;98.00;;;;;;5074517;28;20024;-83
2021/07/13 19:51:43;;;;;;;25.23;16.50;;;25.80;98.00;;;;;;5075713;28;20050;-83
2021/07/13 19:54:09;;;;;;;24.17;17.10;;;25.80;98.00;;;;;;5061127;28;20557;-83
2021/07/13 19:56:35;;;;;;;26.60;17.33;;;25.80;98.10;;;;;;5054363;28;20029;-83
2021/07/13 19:59:00;;;;;;;24.33;17.05;;;25.80;98.10;;;;;;5055545;28;20017;-83
2021/07/13 20:01:26;;;;;;;24.33;17.27;;;25.70;98.10;;;;;;5054265;28;20033;-83
2021/07/13 20:03:51;;;;;;;24.35;17.33;;;25.70;98.10;;;;;;5070641;28;20053;-83
2021/07/13 20:06:17;;;;;;;26.58;17.38;;;25.70;98.10;;;;;;5053969;28;20045;-83
2021/07/13 20:08:43;;;;;;;24.08;17.33;;;25.70;98.20;;;;;;5055387;28;20025;-83
2021/07/13 20:11:08;;;;;;;21.85;17.02;;;25.60;98.10;;;;;;5054112;28;20021;-83
2021/07/13 20:13:34;;;;;;;25.52;17.10;;;25.60;98.10;;;;;;5060802;28;20378;-83
2021/07/13 20:16:00;;;;;;;27.73;19.15;;;25.60;98.20;;;;;;5075592;28;20032;-83
2021/07/13 20:18:26;;;;;;;29.58;20.02;;;25.60;98.20;;;;;;5075536;28;20020;-83
2021/07/13 20:20:52;;;;;;;34.88;23.25;;;25.50;98.20;;;;;;5075224;28;20052;-83
2021/07/13 20:23:17;;;;;;;30.92;22.42;;;25.60;98.30;;;;;;5069134;28;20425;-83
2021/07/13 20:25:43;;;;;;;31.95;23.38;;;25.50;98.30;;;;;;5055049;28;20024;-83
2021/07/13 20:28:09;;;;;;;32.17;22.60;;;25.50;98.40;;;;;;5054053;28;20025;-83
2021/07/13 20:30:35;;;;;;;32.90;23.15;;;25.40;98.40;;;;;;5055254;28;20025;-83
2021/07/13 20:33:02;;;;;;;37.50;24.65;;;25.40;98.40;;;;;;5054991;28;20033;-82
2021/07/13 20:35:28;;;;;;;32.78;24.00;;;25.40;98.50;;;;;;5071767;28;20086;-82
2021/07/13 20:37:54;;;;;;;31.35;22.98;;;25.40;98.50;;;;;;5074777;28;20029;-82
2021/07/13 20:40:20;;;;;;;29.90;21.60;;;25.40;98.80;;;;;;5071324;28;20025;-82
2021/07/13 20:42:45;;;;;;;25.38;19.83;;;25.40;98.70;;;;;;5053462;28;20113;-83
2021/07/13 20:45:12;;;;;;;29.50;19.33;;;25.40;98.70;;;;;;5053368;28;20032;-82
2021/07/13 20:47:38;;;;;;;22.67;18.27;;;25.30;98.70;;;;;;5054648;28;20017;-82
2021/07/13 20:50:06;;;;;;;21.25;16.83;;;25.30;98.80;;;;;;5054642;28;20078;-82
2021/07/13 20:52:32;;;;;;;22.23;17.17;;;25.30;98.90;;;;;;5069874;28;20484;-82
2021/07/13 20:54:58;;;;;;;23.08;17.05;;;25.20;98.90;;;;;;5069853;28;20113;-82
2021/07/13 20:57:24;;;;;;;22.00;16.48;;;25.20;98.90;;;;;;5053270;28;20281;-82
2021/07/13 20:59:50;;;;;;;20.17;15.95;;;25.20;99.00;;;;;;5069805;28;20025;-82
2021/07/13 21:02:16;;;;;;;18.98;14.20;;;25.20;99.30;;;;;;5054665;28;20043;-82
2021/07/13 21:04:41;;;;;;;24.58;14.77;;;25.20;99.20;;;;;;5069247;28;20041;-82
2021/07/13 21:07:07;;;;;;;18.55;13.88;;;25.20;99.20;;;;;;5052833;28;20032;-82
2021/07/13 21:09:33;;;;;;;22.95;14.25;;;25.10;99.20;;;;;;5052970;28;20032;-82
2021/07/13 21:11:59;;;;;;;18.02;13.80;;;25.10;99.20;;;;;;5052947;28;20439;-82
2021/07/13 21:14:26;;;;;;;17.00;13.90;;;25.10;99.30;;;;;;5055483;28;20041;-82
2021/07/13 21:16:51;;;;;;;20.85;13.38;;;25.10;99.30;;;;;;5072849;28;20387;-82
2021/07/13 21:19:17;;;;;;;24.10;15.70;;;25.10;99.40;;;;;;5073962;28;20047;-82
2021/07/13 21:21:43;;;;;;;18.88;14.45;;;25.00;99.40;;;;;;5074041;28;20028;-82
2021/07/13 21:24:08;;;;;;;18.17;13.52;;;25.00;99.60;;;;;;5073797;28;20029;-82
2021/07/13 21:26:37;;;;;;;18.23;13.20;;;25.00;99.60;;;;;;5072598;28;20470;-82
2021/07/13 21:29:06;;;;;;;18.02;13.70;;;24.90;99.60;;;;;;5058107;28;20020;-82
2021/07/13 21:31:32;;;;;;;16.52;12.63;;;24.90;99.90;;;;;;5052620;28;20479;-82
2021/07/13 21:33:58;;;;;;;19.60;14.00;;;25.00;99.60;;;;;;5052565;28;20029;-82
2021/07/13 21:36:23;;;;;;;17.98;13.07;;;25.00;99.60;;;;;;5053678;28;20086;-82
2021/07/13 21:38:49;;;;;;;15.85;12.43;;;24.90;99.60;;;;;;5053450;28;20056;-82
2021/07/13 21:41:15;;;;;;;17.40;12.63;;;24.90;99.70;;;;;;5052441;28;20059;-82
2021/07/13 21:43:41;;;;;;;16.20;12.32;;;24.90;99.70;;;;;;5052429;28;20029;-82
2021/07/13 21:46:07;;;;;;;17.15;13.23;;;24.90;99.70;;;;;;5053597;28;20072;-82
2021/07/13 21:48:33;;;;;;;16.00;12.38;;;24.90;99.70;;;;;;5053617;28;20021;-82
2021/07/13 21:50:59;;;;;;;17.52;12.48;;;24.90;99.70;;;;;;5053881;28;20018;-82
2021/07/13 21:53:24;;;;;;;16.08;11.95;;;24.90;99.70;;;;;;5052300;28;20025;-82
2021/07/13 21:55:51;;;;;;;15.60;11.73;;;24.90;99.70;;;;;;5053695;28;20017;-82
2021/07/13 21:58:18;;;;;;;17.92;12.18;;;24.90;99.80;;;;;;5053762;28;20108;-82
2021/07/13 22:00:43;;;;;;;15.70;11.82;;;24.80;99.70;;;;;;5052193;28;20082;-82
2021/07/13 22:03:09;;;;;;;13.75;11.35;;;24.90;99.80;;;;;;5053486;28;20407;-82
2021/07/13 22:05:35;;;;;;;14.50;12.13;;;24.80;99.80;;;;;;5057456;28;20048;-82
2021/07/13 22:08:01;;;;;;;13.60;11.70;;;24.80;99.80;;;;;;5073556;28;20021;-82
2021/07/13 22:10:26;;;;;;;18.50;13.15;;;24.80;99.80;;;;;;5072228;28;20389;-82
2021/07/13 22:12:52;;;;;;;14.70;12.52;;;24.80;99.80;;;;;;5073586;28;20379;-82
2021/07/13 22:15:18;;;;;;;16.00;13.07;;;24.80;99.80;;;;;;5072071;28;20109;-82
2021/07/13 22:17:44;;;;;;;18.08;12.82;;;24.70;99.80;;;;;;5073428;28;20552;-82
2021/07/13 22:20:18;;;;;;;17.33;12.68;;;24.70;99.80;;;;;;5073677;28;20060;-82
2021/07/13 22:22:45;;;;;;;15.25;12.65;;;24.70;99.70;;;;;;5073377;28;20031;-82
2021/07/13 22:25:12;;;;;;;17.48;13.07;;;24.60;99.70;;;;;;5073285;28;20033;-82
2021/07/13 22:27:38;;;;;;;24.08;13.98;;;24.60;99.70;;;;;;5054919;28;20087;-82
2021/07/13 22:30:08;;;;;;;20.42;13.25;;;24.60;99.80;;;;;;5053277;28;20025;-82
2021/07/13 22:32:34;;;;;;;16.55;12.60;;;24.60;99.80;;;;;;5053230;28;20028;-82
2021/07/13 22:35:00;;;;;;;15.32;12.35;;;24.60;99.80;;;;;;5053218;28;20037;-82
2021/07/13 22:37:25;;;;;;;15.52;12.98;;;24.60;99.80;;;;;;5066752;28;20094;-82
2021/07/13 22:39:51;;;;;;;17.00;12.38;;;24.60;99.80;;;;;;5071756;28;20033;-85
2021/07/13 22:42:17;;;;;;;14.20;12.00;;;24.50;99.90;;;;;;5072725;28;20032;-89
2021/07/13 22:44:42;;;;;;;15.68;12.95;;;24.50;99.90;;;;;;5072832;28;20085;-89
2021/07/13 22:47:08;;;;;;;17.40;12.38;;;24.50;99.90;;;;;;5072937;28;20048;-89
2021/07/13 22:49:34;;;;;;;16.13;14.02;;;24.50;99.90;;;;;;5072885;28;20250;-89
2021/07/13 22:51:59;;;;;;;19.08;13.30;;;24.50;99.90;;;;;;5074564;28;20017;-89
2021/07/13 22:54:25;;;;;;;16.83;13.15;;;24.50;99.90;;;;;;5076436;28;20054;-89
2021/07/13 22:56:51;;;;;;;20.58;14.35;;;24.50;99.90;;;;;;5076446;28;20056;-89
2021/07/13 22:59:16;;;;;;;18.80;13.50;;;24.40;99.90;;;;;;5076146;28;20024;-89
2021/07/13 23:01:42;;;;;;;15.93;13.35;;;24.40;99.90;;;;;;5076353;28;20021;-89
2021/07/13 23:04:08;;;;;;;16.15;13.20;;;24.40;99.90;;;;;;5075974;28;20084;-89
2021/07/13 23:06:33;;;;;;;16.17;13.35;;;24.40;99.90;;;;;;5076277;28;20119;-89
2021/07/13 23:08:59;;;;;;;17.63;13.07;;;24.30;99.90;;;;;;5077565;28;20524;-89
2021/07/13 23:11:25;;;;;;;19.50;13.60;;;24.40;99.90;;;;;;5076289;28;20437;-89
2021/07/13 23:13:50;;;;;;;17.50;13.93;;;24.30;99.90;;;;;;5076233;28;20044;-89
2021/07/13 23:16:18;;;;;;;18.17;14.07;;;24.30;99.90;;;;;;5076305;28;20028;-89
2021/07/13 23:21:15;;;;;;;15.32;12.85;;;24.30;99.90;;;;;;5077384;28;20378;-89
2021/07/13 23:23:41;;;;;;;18.20;13.52;;;24.30;99.90;;;;;;5077007;28;20024;-89
2021/07/13 23:26:07;;;;;;;18.42;13.38;;;24.30;99.90;;;;;;5075929;28;20116;-89
2021/07/13 23:28:33;;;;;;;16.58;13.18;;;24.20;99.90;;;;;;5075443;28;20078;-89
2021/07/13 23:31:00;;;;;;;17.27;14.07;;;24.30;99.90;;;;;;5076941;28;20058;-89
2021/07/13 23:33:25;;;;;;;17.30;13.23;;;24.20;99.90;;;;;;5076830;28;20016;-89
2021/07/13 23:35:51;;;;;;;18.20;13.27;;;24.20;99.90;;;;;;5075710;28;20035;-89
2021/07/13 23:38:17;;;;;;;17.38;13.20;;;24.20;99.90;;;;;;5075850;28;20028;-88
2021/07/13 23:40:42;;;;;;;16.50;13.73;;;24.20;99.90;;;;;;5075520;28;20025;-89
2021/07/13 23:43:08;;;;;;;16.15;12.88;;;24.20;99.90;;;;;;5075483;28;20064;-89
2021/07/13 23:45:34;;;;;;;18.17;13.80;;;24.20;99.90;;;;;;5076879;28;20039;-89
2021/07/13 23:48:00;;;;;;;17.13;12.88;;;24.10;99.90;;;;;;5075506;28;20074;-89
2021/07/13 23:50:27;;;;;;;16.63;13.40;;;24.10;99.90;;;;;;5076835;28;20020;-89
2021/07/13 23:52:53;;;;;;;16.08;13.15;;;24.10;99.90;;;;;;5075545;28;20386;-89
2021/07/13 23:55:19;;;;;;;18.30;12.80;;;24.10;99.90;;;;;;5075783;28;20123;-89
2021/07/13 23:57:44;;;;;;;16.15;13.80;;;24.10;99.90;;;;;;5076700;28;20064;-89
